createdAt,value
2022-12-09T00:00:22.115Z,26.56
2022-12-09T00:02:52.915Z,26.48
2022-12-09T00:05:22.839Z,26.42
2022-12-09T00:07:53.379Z,26.38
2022-12-09T00:10:24.860Z,26.34
2022-12-09T00:12:58.531Z,26.29
2022-12-09T00:15:28.369Z,26.18
2022-12-09T00:17:58.159Z,26.01
2022-12-09T00:20:30.618Z,25.93
2022-12-09T00:23:01.301Z,25.94
2022-12-09T00:25:32.262Z,25.94
2022-12-09T00:28:06.090Z,25.97
2022-12-09T00:31:20.633Z,25.88
2022-12-09T00:33:51.207Z,25.91
2022-12-09T00:36:22.866Z,25.91
2022-12-09T00:38:54.009Z,25.84
2022-12-09T00:41:45.670Z,25.73
2022-12-09T00:44:18.547Z,25.71
2022-12-09T00:46:48.429Z,25.69
2022-12-09T00:49:18.587Z,25.58
2022-12-09T00:51:49.964Z,25.54
2022-12-09T00:54:19.942Z,25.47
2022-12-09T00:56:49.525Z,25.39
2022-12-09T00:59:19.615Z,25.36
2022-12-09T01:01:49.349Z,25.39
2022-12-09T01:04:22.092Z,25.39
2022-12-09T01:06:53.344Z,25.39
2022-12-09T01:09:24.212Z,25.38
2022-12-09T01:11:54.398Z,25.38
2022-12-09T01:14:24.061Z,25.33
2022-12-09T01:16:53.719Z,25.30
2022-12-09T01:19:23.628Z,25.30
2022-12-09T01:21:56.560Z,25.28
2022-12-09T01:24:27.285Z,25.16
2022-12-09T01:26:57.848Z,25.09
2022-12-09T01:29:27.730Z,25.08
2022-12-09T01:31:58.520Z,25.08
2022-12-09T01:34:28.445Z,25.09
2022-12-09T01:36:58.656Z,25.04
2022-12-09T01:39:28.452Z,24.91
2022-12-09T01:41:58.078Z,24.87
2022-12-09T01:44:29.096Z,24.89
2022-12-09T01:47:04.155Z,24.84
2022-12-09T01:49:44.271Z,24.81
2022-12-09T01:52:23.862Z,24.82
2022-12-09T01:54:54.736Z,24.81
2022-12-09T01:57:24.619Z,24.75
2022-12-09T01:59:54.463Z,24.74
2022-12-09T02:02:26.659Z,24.65
2022-12-09T02:04:57.205Z,24.60
2022-12-09T02:07:28.868Z,24.57
2022-12-09T02:09:59.446Z,24.59
2022-12-09T02:13:06.921Z,24.61
2022-12-09T02:15:52.240Z,24.57
2022-12-09T02:18:49.617Z,24.59
2022-12-09T02:21:33.516Z,24.50
2022-12-09T02:24:15.472Z,24.46
2022-12-09T02:27:02.293Z,24.46
2022-12-09T02:29:55.185Z,24.50
2022-12-09T02:33:09.017Z,24.49
2022-12-09T02:36:09.405Z,24.47
2022-12-09T02:38:44.372Z,24.41
2022-12-09T02:41:23.222Z,24.39
2022-12-09T02:43:59.757Z,24.34
2022-12-09T02:46:36.333Z,24.31
2022-12-09T02:49:10.017Z,24.27
2022-12-09T02:51:43.308Z,24.29
2022-12-09T02:54:19.029Z,24.29
2022-12-09T02:56:57.812Z,24.24
2022-12-09T02:59:31.649Z,24.29
2022-12-09T03:02:04.858Z,24.21
2022-12-09T03:04:34.879Z,24.23
2022-12-09T03:07:22.621Z,24.20
2022-12-09T03:10:08.680Z,24.14
2022-12-09T03:12:42.417Z,24.14
2022-12-09T03:15:16.203Z,24.19
2022-12-09T03:17:47.846Z,24.19
2022-12-09T03:20:24.387Z,24.12
2022-12-09T03:23:01.402Z,24.03
2022-12-09T03:25:40.835Z,23.99
2022-12-09T03:28:31.942Z,24.03
2022-12-09T03:31:06.168Z,23.96
2022-12-09T03:33:36.453Z,23.93
2022-12-09T03:36:10.719Z,23.90
2022-12-09T03:38:42.789Z,23.85
2022-12-09T03:41:31.986Z,23.85
2022-12-09T03:44:40.837Z,23.92
2022-12-09T03:47:12.866Z,23.85
2022-12-09T03:49:44.171Z,23.82
2022-12-09T03:52:27.042Z,23.81
2022-12-09T03:55:20.600Z,23.75
2022-12-09T03:57:55.933Z,23.69
2022-12-09T04:00:26.410Z,23.66
2022-12-09T04:02:56.550Z,23.58
2022-12-09T04:05:26.427Z,23.63
2022-12-09T04:07:56.297Z,23.66
2022-12-09T04:10:26.256Z,23.68
2022-12-09T04:12:55.799Z,23.65
2022-12-09T04:15:25.301Z,23.61
2022-12-09T04:17:54.941Z,23.61
2022-12-09T04:20:24.560Z,23.59
2022-12-09T04:22:54.380Z,23.55
2022-12-09T04:25:23.950Z,23.55
2022-12-09T04:27:53.581Z,23.51
2022-12-09T04:30:23.145Z,23.55
2022-12-09T04:32:52.846Z,23.57
2022-12-09T04:35:23.876Z,23.59
2022-12-09T04:37:54.076Z,23.61
2022-12-09T04:40:24.496Z,23.55
2022-12-09T04:42:54.415Z,23.54
2022-12-09T04:45:25.667Z,23.51
2022-12-09T04:47:55.707Z,23.52
2022-12-09T04:50:25.355Z,23.42
2022-12-09T04:52:55.279Z,23.38
2022-12-09T04:55:24.825Z,23.40
2022-12-09T04:57:54.843Z,23.41
2022-12-09T05:00:24.704Z,23.41
2022-12-09T05:02:54.742Z,23.41
2022-12-09T05:05:24.383Z,23.41
2022-12-09T05:07:54.253Z,23.40
2022-12-09T05:10:24.370Z,23.38
2022-12-09T05:12:54.001Z,23.38
2022-12-09T05:15:23.983Z,23.38
2022-12-09T05:17:55.353Z,23.35
2022-12-09T05:20:29.175Z,23.25
2022-12-09T05:23:00.875Z,23.24
2022-12-09T05:25:35.047Z,23.17
2022-12-09T05:28:05.166Z,23.18
2022-12-09T05:30:34.756Z,23.15
2022-12-09T05:33:04.982Z,23.13
2022-12-09T05:35:42.623Z,23.06
2022-12-09T05:38:19.557Z,23.01
2022-12-09T05:40:49.805Z,23.03
2022-12-09T05:43:19.946Z,23.04
2022-12-09T05:45:49.634Z,22.99
2022-12-09T05:48:19.495Z,22.96
2022-12-09T05:51:02.169Z,22.94
2022-12-09T05:53:32.864Z,22.99
2022-12-09T05:56:03.037Z,23.01
2022-12-09T05:58:33.109Z,22.99
2022-12-09T06:01:08.008Z,22.97
2022-12-09T06:03:38.922Z,22.94
2022-12-09T06:06:14.889Z,22.94
2022-12-09T06:08:45.874Z,22.94
2022-12-09T06:11:20.071Z,22.86
2022-12-09T06:13:52.508Z,22.87
2022-12-09T06:16:24.172Z,22.83
2022-12-09T06:18:55.360Z,22.84
2022-12-09T06:21:25.557Z,22.87
2022-12-09T06:23:57.404Z,22.84
2022-12-09T06:26:30.666Z,22.82
2022-12-09T06:29:01.210Z,22.82
2022-12-09T06:31:31.736Z,22.76
2022-12-09T06:34:02.906Z,22.74
2022-12-09T06:36:33.870Z,22.73
2022-12-09T06:39:10.122Z,22.70
2022-12-09T06:41:44.475Z,22.66
2022-12-09T06:44:21.695Z,22.67
2022-12-09T06:46:54.816Z,22.69
2022-12-09T06:49:25.507Z,22.64
2022-12-09T06:51:55.770Z,22.66
2022-12-09T06:54:27.827Z,22.64
2022-12-09T06:56:58.347Z,22.63
2022-12-09T06:59:28.149Z,22.64
2022-12-09T07:01:57.859Z,22.67
2022-12-09T07:04:28.133Z,22.73
2022-12-09T07:06:58.215Z,22.70
2022-12-09T07:09:28.784Z,22.63
2022-12-09T07:11:58.865Z,22.60
2022-12-09T07:14:28.812Z,22.60
2022-12-09T07:16:58.836Z,22.56
2022-12-09T07:19:29.041Z,22.57
2022-12-09T07:21:59.309Z,22.56
2022-12-09T07:24:29.105Z,22.53
2022-12-09T07:27:03.125Z,22.49
2022-12-09T07:29:37.326Z,22.49
2022-12-09T07:32:08.488Z,22.51
2022-12-09T07:34:39.726Z,22.48
2022-12-09T07:37:10.870Z,22.48
2022-12-09T07:39:40.756Z,22.48
2022-12-09T07:42:11.959Z,22.48
2022-12-09T07:44:52.349Z,22.43
2022-12-09T07:47:22.240Z,22.41
2022-12-09T07:49:52.144Z,22.42
2022-12-09T07:52:22.245Z,22.41
2022-12-09T07:54:52.293Z,22.33
2022-12-09T07:57:22.540Z,22.31
2022-12-09T07:59:52.292Z,22.32
2022-12-09T08:02:22.112Z,22.33
2022-12-09T08:04:52.751Z,22.31
2022-12-09T08:07:22.711Z,22.28
2022-12-09T08:09:53.211Z,22.28
2022-12-09T08:12:23.036Z,22.25
2022-12-09T08:14:52.962Z,22.26
2022-12-09T08:17:22.991Z,22.28
2022-12-09T08:19:53.328Z,22.33
2022-12-09T08:22:24.439Z,22.28
2022-12-09T08:24:55.144Z,22.25
2022-12-09T08:27:24.776Z,22.24
2022-12-09T08:29:54.427Z,22.21
2022-12-09T08:32:24.276Z,22.24
2022-12-09T08:34:54.811Z,22.21
2022-12-09T08:37:24.851Z,22.18
2022-12-09T08:39:54.600Z,22.22
2022-12-09T08:42:24.370Z,22.24
2022-12-09T08:44:58.561Z,22.28
2022-12-09T08:47:32.304Z,22.32
2022-12-09T08:50:02.464Z,22.33
2022-12-09T08:52:38.695Z,22.33
2022-12-09T08:55:11.428Z,22.42
2022-12-09T08:57:41.831Z,22.70
2022-12-09T09:00:12.225Z,22.97
2022-12-09T09:02:42.116Z,23.22
2022-12-09T09:05:11.906Z,23.54
2022-12-09T09:08:13.396Z,23.79
2022-12-09T09:10:44.311Z,24.00
2022-12-09T09:13:14.225Z,24.21
2022-12-09T09:15:44.512Z,24.49
2022-12-09T09:18:15.399Z,24.72
2022-12-09T09:20:49.818Z,24.88
2022-12-09T09:23:20.910Z,25.18
2022-12-09T09:25:51.675Z,25.47
2022-12-09T09:28:25.979Z,25.76
2022-12-09T09:31:04.176Z,26.04
2022-12-09T09:33:36.380Z,26.22
2022-12-09T09:36:10.613Z,26.51
2022-12-09T09:38:41.771Z,26.65
2022-12-09T09:41:50.144Z,27.03
2022-12-09T09:44:33.278Z,27.27
2022-12-09T09:47:13.899Z,27.38
2022-12-09T09:50:02.635Z,27.72
2022-12-09T09:52:33.672Z,27.92
2022-12-09T09:55:19.965Z,28.19
2022-12-09T09:58:12.411Z,28.50
2022-12-09T10:01:10.041Z,28.91
2022-12-09T10:03:49.301Z,29.15
2022-12-09T10:06:34.005Z,29.35
2022-12-09T10:09:40.420Z,29.73
2022-12-09T10:12:25.847Z,30.03
2022-12-09T10:15:17.882Z,30.40
2022-12-09T10:17:54.365Z,30.54
2022-12-09T10:20:34.997Z,30.98
2022-12-09T10:23:13.071Z,31.19
2022-12-09T10:25:55.024Z,31.47
2022-12-09T10:28:36.466Z,31.74
2022-12-09T10:31:07.731Z,31.97
2022-12-09T10:33:40.000Z,32.25
2022-12-09T10:36:33.789Z,32.58
2022-12-09T10:39:06.916Z,32.72
2022-12-09T10:42:18.164Z,33.03
2022-12-09T10:44:50.518Z,33.28
2022-12-09T10:47:32.341Z,33.58
2022-12-09T10:50:02.964Z,33.91
2022-12-09T10:52:44.623Z,34.06
2022-12-09T10:55:46.994Z,33.94
2022-12-09T10:58:23.136Z,33.98
2022-12-09T11:01:11.251Z,34.32
2022-12-09T11:03:55.882Z,34.57
2022-12-09T11:06:40.780Z,34.77
2022-12-09T11:09:24.354Z,35.10
2022-12-09T11:11:55.935Z,34.86
2022-12-09T11:14:42.098Z,35.21
2022-12-09T11:17:27.580Z,35.08
2022-12-09T11:20:18.615Z,35.42
2022-12-09T11:23:20.636Z,35.94
2022-12-09T11:25:57.738Z,36.30
2022-12-09T11:28:39.552Z,36.29
2022-12-09T11:31:31.880Z,36.81
2022-12-09T11:34:07.363Z,36.94
2022-12-09T11:36:44.354Z,37.15
2022-12-09T11:39:34.151Z,37.62
2022-12-09T11:42:19.673Z,37.25
2022-12-09T11:45:05.585Z,37.65
2022-12-09T11:48:20.285Z,37.38
2022-12-09T11:50:33.677Z,38.07
2022-12-09T11:53:25.559Z,38.28
2022-12-09T11:56:02.392Z,37.87
2022-12-09T11:59:03.589Z,38.54
2022-12-09T12:01:53.990Z,38.74
2022-12-09T12:05:04.820Z,38.71
2022-12-09T12:08:07.352Z,38.17
2022-12-09T12:10:54.980Z,38.76
2022-12-09T12:13:30.234Z,39.07
2022-12-09T12:16:15.061Z,39.16
2022-12-09T12:18:48.212Z,39.22
2022-12-09T12:21:45.362Z,39.67
2022-12-09T12:24:22.861Z,39.34
2022-12-09T12:27:25.876Z,39.39
2022-12-09T12:30:00.138Z,39.82
2022-12-09T12:35:39.429Z,37.35
2022-12-09T12:38:43.276Z,38.99
2022-12-09T12:41:24.843Z,39.27
2022-12-09T12:44:49.817Z,40.36
2022-12-09T12:47:32.062Z,41.00
2022-12-09T12:50:28.717Z,41.18
2022-12-09T12:53:46.018Z,41.57
2022-12-09T12:56:26.292Z,41.65
2022-12-09T12:59:24.583Z,41.31
2022-12-09T13:01:59.330Z,41.71
2022-12-09T13:05:07.645Z,41.21
2022-12-09T13:07:52.582Z,38.98
2022-12-09T13:10:43.719Z,40.79
2022-12-09T13:13:24.260Z,41.44
2022-12-09T13:15:58.706Z,41.92
2022-12-09T13:18:38.104Z,41.96
2022-12-09T13:21:09.878Z,42.43
2022-12-09T13:24:11.414Z,42.32
2022-12-09T13:26:44.371Z,39.39
2022-12-09T13:29:35.554Z,41.55
2022-12-09T13:32:05.581Z,42.27
2022-12-09T13:34:42.437Z,42.40
2022-12-09T13:37:35.912Z,41.58
2022-12-09T13:40:32.054Z,40.97
2022-12-09T13:43:04.913Z,38.85
2022-12-09T13:45:38.651Z,38.47
2022-12-09T13:48:17.254Z,39.70
2022-12-09T13:50:57.155Z,41.79
2022-12-09T13:53:35.580Z,43.07
2022-12-09T13:56:20.715Z,43.70
2022-12-09T13:59:16.825Z,42.19
2022-12-09T14:01:56.176Z,43.18
2022-12-09T14:04:32.516Z,43.16
2022-12-09T14:07:15.966Z,41.41
2022-12-09T14:09:54.721Z,41.41
2022-12-09T14:12:28.062Z,42.57
2022-12-09T14:15:22.398Z,43.21
2022-12-09T14:17:52.844Z,43.94
2022-12-09T14:20:26.078Z,44.45
2022-12-09T14:23:12.984Z,44.85
2022-12-09T14:25:56.467Z,45.33
2022-12-09T14:28:41.800Z,44.17
2022-12-09T14:31:12.160Z,43.84
2022-12-09T14:33:48.001Z,44.25
2022-12-09T14:36:18.014Z,44.30
2022-12-09T14:39:24.705Z,44.94
2022-12-09T14:42:04.156Z,44.33
2022-12-09T14:44:34.790Z,45.05
2022-12-09T14:47:25.296Z,46.27
2022-12-09T14:49:58.402Z,44.97
2022-12-09T14:52:34.080Z,45.98
2022-12-09T14:55:10.600Z,46.20
2022-12-09T14:57:47.154Z,45.54
2022-12-09T15:01:00.600Z,45.36
2022-12-09T15:03:35.640Z,46.10
2022-12-09T15:06:18.674Z,46.17
2022-12-09T15:08:49.546Z,46.27
2022-12-09T15:11:24.963Z,46.31
2022-12-09T15:14:18.239Z,45.81
2022-12-09T15:16:50.920Z,45.29
2022-12-09T15:19:58.658Z,45.23
2022-12-09T15:22:23.774Z,44.20
2022-12-09T15:24:56.097Z,45.30
2022-12-09T15:27:29.276Z,44.35
2022-12-09T15:29:59.439Z,45.83
2022-12-09T15:32:33.576Z,46.99
2022-12-09T15:35:24.595Z,44.16
2022-12-09T15:38:00.242Z,42.63
2022-12-09T15:40:32.637Z,41.21
2022-12-09T15:43:09.354Z,44.40
2022-12-09T15:45:43.837Z,43.50
2022-12-09T15:48:23.623Z,42.64
2022-12-09T15:50:58.649Z,41.21
2022-12-09T15:53:55.800Z,40.75
2022-12-09T15:56:34.749Z,41.99
2022-12-09T15:59:14.232Z,42.33
2022-12-09T16:01:55.882Z,40.93
2022-12-09T16:04:31.304Z,43.59
2022-12-09T16:07:14.439Z,43.83
2022-12-09T16:10:19.683Z,44.50
2022-12-09T16:13:04.866Z,43.73
2022-12-09T16:15:47.657Z,40.31
2022-12-09T16:18:35.610Z,40.13
2022-12-09T16:21:17.707Z,38.62
2022-12-09T16:23:54.957Z,37.57
2022-12-09T16:26:33.436Z,37.07
2022-12-09T16:29:15.351Z,37.93
2022-12-09T16:31:45.874Z,37.30
2022-12-09T16:34:27.744Z,37.70
2022-12-09T16:36:58.414Z,37.38
2022-12-09T16:39:28.408Z,36.68
2022-12-09T16:42:04.246Z,36.48
2022-12-09T16:44:38.101Z,36.19
2022-12-09T16:47:17.260Z,35.93
2022-12-09T16:49:49.714Z,36.02
2022-12-09T16:52:25.839Z,35.79
2022-12-09T16:54:56.984Z,35.53
2022-12-09T16:57:26.997Z,35.01
2022-12-09T16:59:57.481Z,34.35
2022-12-09T17:02:39.603Z,34.06
2022-12-09T17:05:10.268Z,33.59
2022-12-09T17:07:40.683Z,33.26
2022-12-09T17:10:14.711Z,33.10
2022-12-09T17:12:46.591Z,32.90
2022-12-09T17:15:17.275Z,32.55
2022-12-09T17:17:49.149Z,30.89
2022-12-09T17:20:19.013Z,30.07
2022-12-09T17:22:49.318Z,28.46
2022-12-09T17:25:19.546Z,24.68
2022-12-09T17:27:49.298Z,23.90
2022-12-09T17:30:19.169Z,23.85
2022-12-09T17:32:49.004Z,24.00
2022-12-09T17:35:19.274Z,24.19
2022-12-09T17:37:49.366Z,24.41
2022-12-09T17:40:19.238Z,24.96
2022-12-09T17:42:49.378Z,25.50
2022-12-09T17:45:19.216Z,25.93
2022-12-09T17:47:52.188Z,26.14
2022-12-09T17:50:22.215Z,26.51
2022-12-09T17:52:52.305Z,26.75
2022-12-09T17:55:22.115Z,26.71
2022-12-09T17:57:54.251Z,26.83
2022-12-09T18:00:24.970Z,26.92
2022-12-09T18:02:55.342Z,27.06
2022-12-09T18:05:25.124Z,27.18
2022-12-09T18:07:54.964Z,27.33
2022-12-09T18:10:24.892Z,27.64
2022-12-09T18:12:55.117Z,28.23
2022-12-09T18:15:24.901Z,29.76
2022-12-09T18:17:55.065Z,29.92
2022-12-09T18:20:24.863Z,29.67
2022-12-09T18:22:55.072Z,30.20
2022-12-09T18:25:24.849Z,29.66
2022-12-09T18:27:54.829Z,29.52
2022-12-09T18:30:24.675Z,30.69
2022-12-09T18:32:54.916Z,31.12
2022-12-09T18:35:25.238Z,31.20
2022-12-09T18:37:58.716Z,31.71
2022-12-09T18:40:34.163Z,32.32
2022-12-09T18:43:03.961Z,32.87
2022-12-09T18:45:36.435Z,32.58
2022-12-09T18:48:06.828Z,32.87
2022-12-09T18:50:38.705Z,33.11
2022-12-09T18:53:09.094Z,32.46
2022-12-09T18:55:45.993Z,31.94
2022-12-09T18:58:16.896Z,31.23
2022-12-09T19:00:46.850Z,30.74
2022-12-09T19:03:16.642Z,30.57
2022-12-09T19:05:46.438Z,30.44
2022-12-09T19:08:16.701Z,30.55
2022-12-09T19:10:55.996Z,31.00
2022-12-09T19:13:26.262Z,30.92
2022-12-09T19:15:56.224Z,30.82
2022-12-09T19:18:26.055Z,30.67
2022-12-09T19:20:55.915Z,30.40
2022-12-09T19:23:26.148Z,30.10
2022-12-09T19:25:55.897Z,30.02
2022-12-09T19:28:26.020Z,30.00
2022-12-09T19:30:55.851Z,30.04
2022-12-09T19:33:25.921Z,30.02
2022-12-09T19:35:55.724Z,29.92
2022-12-09T19:38:25.947Z,29.87
2022-12-09T19:40:55.711Z,29.93
2022-12-09T19:43:25.798Z,29.67
2022-12-09T19:45:55.953Z,29.80
2022-12-09T19:48:26.017Z,29.72
2022-12-09T19:50:55.777Z,29.72
2022-12-09T19:53:25.760Z,29.61
2022-12-09T19:55:55.523Z,29.42
2022-12-09T19:58:25.741Z,29.38
2022-12-09T20:00:55.597Z,29.35
2022-12-09T20:03:27.706Z,29.46
2022-12-09T20:05:58.152Z,29.46
2022-12-09T20:08:28.623Z,29.45
2022-12-09T20:10:58.872Z,29.41
2022-12-09T20:13:31.963Z,29.31
2022-12-09T20:16:10.906Z,29.28
2022-12-09T20:18:41.406Z,29.18
2022-12-09T20:21:13.533Z,29.24
2022-12-09T20:23:44.823Z,29.43
2022-12-09T20:26:23.849Z,29.69
2022-12-09T20:28:55.824Z,29.97
2022-12-09T20:31:32.287Z,30.13
2022-12-09T20:34:05.521Z,30.28
2022-12-09T20:36:37.664Z,30.31
2022-12-09T20:39:11.726Z,30.34
2022-12-09T20:41:43.488Z,29.99
2022-12-09T20:44:14.820Z,29.63
2022-12-09T20:46:52.227Z,29.51
2022-12-09T20:49:27.523Z,29.43
2022-12-09T20:51:58.485Z,29.38
2022-12-09T20:54:28.717Z,29.34
2022-12-09T20:56:58.535Z,29.22
2022-12-09T20:59:28.200Z,29.11
2022-12-09T21:01:57.802Z,28.97
2022-12-09T21:04:27.964Z,29.00
2022-12-09T21:06:58.795Z,28.98
2022-12-09T21:09:30.436Z,28.93
2022-12-09T21:12:00.788Z,29.00
2022-12-09T21:14:33.088Z,29.07
2022-12-09T21:17:04.156Z,28.90
2022-12-09T21:19:35.357Z,28.77
2022-12-09T21:22:06.507Z,28.60
2022-12-09T21:24:36.176Z,28.67
2022-12-09T21:27:05.862Z,28.64
2022-12-09T21:29:35.706Z,28.63
2022-12-09T21:32:06.286Z,28.60
2022-12-09T21:34:37.073Z,28.50
2022-12-09T21:37:06.968Z,28.40
2022-12-09T21:39:36.479Z,28.33
2022-12-09T21:42:06.204Z,28.31
2022-12-09T21:44:35.737Z,28.04
2022-12-09T21:47:05.750Z,27.96
2022-12-09T21:49:35.517Z,27.88
2022-12-09T21:52:07.756Z,27.72
2022-12-09T21:54:37.923Z,27.69
2022-12-09T21:57:07.479Z,27.54
2022-12-09T21:59:37.369Z,27.31
2022-12-09T22:02:07.559Z,27.16
2022-12-09T22:04:37.440Z,27.00
2022-12-09T22:07:07.082Z,26.92
2022-12-09T22:09:37.006Z,26.82
2022-12-09T22:12:06.896Z,26.53
2022-12-09T22:14:38.200Z,26.62
2022-12-09T22:17:08.631Z,26.60
2022-12-09T22:19:38.510Z,26.53
2022-12-09T22:22:09.264Z,26.39
2022-12-09T22:24:39.295Z,26.31
2022-12-09T22:27:09.020Z,26.24
2022-12-09T22:29:38.971Z,26.16
2022-12-09T22:32:08.471Z,26.13
2022-12-09T22:34:38.242Z,26.16
2022-12-09T22:37:41.615Z,26.14
2022-12-09T22:39:57.823Z,26.14
2022-12-09T22:42:27.476Z,26.16
2022-12-09T22:44:57.008Z,26.02
2022-12-09T22:47:26.626Z,25.96
2022-12-09T22:49:56.409Z,25.96
2022-12-09T22:53:21.662Z,26.08
2022-12-09T22:56:07.231Z,25.97
2022-12-09T22:58:37.290Z,25.84
2022-12-09T23:01:21.371Z,25.80
2022-12-09T23:03:52.587Z,25.74
2022-12-09T23:06:23.338Z,25.65
2022-12-09T23:08:53.593Z,25.59
2022-12-09T23:11:26.752Z,25.53
2022-12-09T23:13:57.766Z,25.50
2022-12-09T23:16:28.549Z,25.43
2022-12-09T23:18:59.708Z,25.40
2022-12-09T23:21:32.621Z,25.36
2022-12-09T23:24:05.632Z,25.35
2022-12-09T23:26:38.669Z,25.49
2022-12-09T23:29:13.801Z,25.43
2022-12-09T23:31:45.266Z,25.32
2022-12-09T23:34:16.513Z,25.22
2022-12-09T23:36:47.055Z,25.16
2022-12-09T23:39:19.471Z,25.07
2022-12-09T23:41:49.591Z,25.05
2022-12-09T23:44:20.681Z,25.04
2022-12-09T23:46:51.325Z,24.98
2022-12-09T23:49:21.463Z,24.99
2022-12-09T23:51:51.014Z,24.89
2022-12-09T23:54:20.946Z,24.87
2022-12-09T23:56:53.185Z,24.95
2022-12-09T23:59:24.682Z,25.02
